EGAA/BFS METAR and TAF weather

Enter ICAO airport designator
Station Type Date Time Source
EGAA METAR 2021/09/24 02:20 UTC NOAA

EGAA 240220Z AUTO 23010KT 9999 OVC005 14/13 Q1012


Station Type Date Time Source
EGAA Decoded METAR 2021/09/24 02:20 UTC NOAA

Belfast / Aldergrove Airport, United Kingdom (EGAA) 54-39N 006-13W 0M
Sep 23, 2021 - 10:20 PM EDT / 2021.09.24 0220 UTC
Wind: from the SW (230 degrees) at 12 MPH (10 KT):0
Visibility: greater than 7 mile(s):0
Sky conditions: overcast
Temperature: 57 F (14 C)
Dew Point: 55 F (13 C)
Relative Humidity: 93%
Pressure (altimeter): 29.88 in. Hg (1012 hPa)
ob: EGAA 240220Z AUTO 23010KT 9999 OVC005 14/13 Q1012
cycle: 2

Station Type Date Time Source
EGAA TAF 2021/09/23 18:29 UTC NOAA

TAF EGAA 231701Z 2318/2418 23011KT 9999 FEW015 SCT020 PROB30
TEMPO 2318/2319 BKN014
BECMG 2322/2402 BKN009
TEMPO 2401/2414 4000 RADZ BKN004 PROB40
TEMPO 2401/2406 1200 DZ BR BKN001 PROB40
TEMPO 2414/2418 SCT009 BKN015

Example: see airport list